Time;durP1;ratioP1;P1;durP2;ratioP2;P2;SDS_P1;SDS_P2;PMS_P1;PMS_P2;Temp;Humidity;BMP_temperature;BMP_pressure;BME280_temperature;BME280_humidity;BME280_pressure;Samples;Min_cycle;Max_cycle;Signal;HPM_P1;HPM_P2
2021/06/04 00:01:38;;;;;;;;;13.00;13.00;;;;;15.78;84.47;101233.44;5053263;28;8833;-76
2021/06/04 00:04:34;;;;;;;;;12.00;12.00;;;;;15.95;84.13;101235.09;5053212;28;8910;-76
2021/06/04 00:07:29;;;;;;;;;13.00;12.25;;;;;15.67;84.00;101227.53;5052735;28;8966;-76
2021/06/04 00:10:29;;;;;;;;;12.00;12.00;;;;;15.62;84.24;101215.81;5033175;28;8838;-76
2021/06/04 00:13:26;;;;;;;;;12.25;12.25;;;;;15.78;84.49;101219.47;5034344;28;9001;-76
2021/06/04 00:16:30;;;;;;;;;13.00;13.00;;;;;15.79;84.19;101224.69;5034399;28;8958;-76
2021/06/04 00:19:29;;;;;;;;;11.33;11.00;;;;;15.72;84.32;101224.50;5052865;28;9018;-76
2021/06/04 00:22:27;;;;;;;;;12.00;12.00;;;;;15.69;84.33;101216.84;5053003;28;9030;-76
2021/06/04 00:25:23;;;;;;;;;12.25;12.25;;;;;15.89;84.18;101217.03;5039035;28;8934;-76
2021/06/04 00:27:51;;;;;;;;;12.00;12.00;;;;;15.74;83.54;101227.75;5053437;28;8839;-76
2021/06/04 00:30:47;;;;;;;;;13.00;13.00;;;;;15.91;83.53;101221.06;5040241;28;8963;-77
2021/06/04 00:33:43;;;;;;;;;12.50;12.50;;;;;15.96;83.74;101214.44;5052453;28;9689;-76
2021/06/04 00:36:41;;;;;;;;;9.25;9.25;;;;;15.92;83.39;101222.69;5052514;28;8832;-76
2021/06/04 00:39:39;;;;;;;;;11.75;11.75;;;;;15.96;83.40;101220.03;5052305;28;8848;-76
2021/06/04 00:42:34;;;;;;;;;14.25;13.75;;;;;16.04;83.32;101222.66;5053419;28;8882;-77
2021/06/04 00:45:29;;;;;;;;;12.00;12.00;;;;;16.09;82.96;101229.94;5053331;28;8863;-77
2021/06/04 00:48:25;;;;;;;;;12.33;12.33;;;;;16.06;83.12;101231.47;5038701;28;8954;-77
2021/06/04 00:51:33;;;;;;;;;12.50;12.00;;;;;16.13;82.85;101220.53;5052383;28;8910;-76
2021/06/04 00:54:29;;;;;;;;;10.25;10.25;;;;;16.18;83.21;101218.63;5051996;28;8883;-77
2021/06/04 00:57:27;;;;;;;;;12.50;12.50;;;;;15.99;82.72;101222.91;5051926;28;8909;-76
2021/06/04 01:00:40;;;;;;;;;13.50;13.50;;;;;16.05;83.03;101210.31;5052268;28;9666;-77
2021/06/04 01:03:39;;;;;;;;;12.67;12.67;;;;;16.15;83.04;101208.19;5051936;28;8836;-76
2021/06/04 01:07:12;;;;;;;;;15.25;15.25;;;;;15.90;83.19;101216.66;5051831;28;9005;-76
2021/06/04 01:09:49;;;;;;;;;16.67;16.67;;;;;16.01;83.08;101212.19;5032232;28;8953;-77
2021/06/04 01:13:13;;;;;;;;;13.67;13.67;;;;;16.26;82.88;101217.69;5051903;28;8922;-77
2021/06/04 01:16:26;;;;;;;;;15.00;14.25;;;;;16.19;82.85;101218.28;5038613;28;8981;-77
2021/06/04 01:19:46;;;;;;;;;15.50;15.50;;;;;16.00;82.94;101226.50;5051708;28;8847;-77
2021/06/04 01:22:59;;;;;;;;;20.33;20.00;;;;;16.22;82.63;101220.34;5052660;28;8863;-77
2021/06/04 01:26:07;;;;;;;;;17.25;16.50;;;;;16.06;82.84;101225.91;5051780;28;8929;-77
2021/06/04 01:29:14;;;;;;;;;14.33;14.33;;;;;15.91;83.65;101223.06;5053417;28;8933;-77
2021/06/04 01:32:25;;;;;;;;;14.00;14.00;;;;;15.98;83.31;101226.88;5038383;28;9115;-77
2021/06/04 01:35:26;;;;;;;;;12.75;12.50;;;;;16.02;82.92;101222.19;5038341;28;8973;-77
2021/06/04 01:38:28;;;;;;;;;16.00;16.00;;;;;16.07;82.93;101224.72;5051606;28;8855;-76
2021/06/04 01:41:29;;;;;;;;;16.75;16.75;;;;;16.11;83.16;101222.06;5039230;28;9007;-76
2021/06/04 01:44:31;;;;;;;;;15.25;15.00;;;;;16.01;82.92;101222.53;5038086;28;8860;-76
2021/06/04 01:47:36;;;;;;;;;15.00;15.00;;;;;16.13;82.67;101214.94;5052169;28;8832;-76
2021/06/04 01:50:37;;;;;;;;;21.33;18.00;;;;;16.01;83.28;101226.13;5051638;28;8921;-76
2021/06/04 01:53:39;;;;;;;;;18.00;18.00;;;;;16.19;83.06;101223.88;5051313;28;8919;-76
2021/06/04 01:56:45;;;;;;;;;11.67;11.67;;;;;16.21;82.71;101213.16;5046341;28;9009;-76
2021/06/04 01:59:46;;;;;;;;;17.75;17.25;;;;;16.12;82.77;101209.72;5051478;28;8919;-76
2021/06/04 02:02:34;;;;;;;;;15.75;15.75;;;;;16.18;82.83;101207.47;5052665;28;8864;-76
2021/06/04 02:05:34;;;;;;;;;15.67;15.67;;;;;16.05;82.95;101210.31;5052867;28;8836;-76
2021/06/04 02:08:40;;;;;;;;;14.00;14.00;;;;;16.08;83.36;101219.97;5055490;28;9000;-77
2021/06/04 02:11:37;;;;;;;;;19.25;15.50;;;;;16.16;83.01;101210.63;5035274;28;8849;-77
2021/06/04 02:14:38;;;;;;;;;13.33;13.33;;;;;15.95;83.45;101215.59;5036907;28;8838;-77
2021/06/04 02:17:34;;;;;;;;;17.50;17.25;;;;;16.09;83.44;101214.00;5022141;28;9677;-76
2021/06/04 02:20:37;;;;;;;;;15.00;15.00;;;;;16.22;82.97;101212.00;5036648;28;8837;-76
2021/06/04 02:23:42;;;;;;;;;16.67;16.67;;;;;16.24;82.91;101209.66;5035366;28;8923;-76
2021/06/04 02:26:49;;;;;;;;;14.25;14.25;;;;;16.37;82.96;101219.59;5036490;28;8922;-76
2021/06/04 02:29:51;;;;;;;;;13.50;12.75;;;;;16.13;83.38;101216.91;5035085;28;8845;-76
2021/06/04 02:33:09;;;;;;;;;15.75;15.00;;;;;16.18;83.88;101216.69;5034991;28;8838;-77
2021/06/04 02:36:16;;;;;;;;;14.25;14.25;;;;;16.25;82.59;101222.44;5021648;28;8860;-77
2021/06/04 02:39:20;;;;;;;;;16.50;16.50;;;;;16.18;83.13;101233.41;5036334;28;8877;-77
2021/06/04 02:42:31;;;;;;;;;16.75;15.50;;;;;16.13;83.53;101228.06;5034955;28;8846;-76
2021/06/04 02:45:33;;;;;;;;;17.00;15.33;;;;;16.17;83.51;101228.97;5051012;28;9593;-77
2021/06/04 02:48:29;;;;;;;;;18.00;18.00;;;;;16.05;83.62;101238.22;5052057;28;8917;-77
2021/06/04 02:51:41;;;;;;;;;20.00;20.00;;;;;16.04;84.04;101242.19;5056083;28;9706;-77
2021/06/04 02:54:41;;;;;;;;;15.00;15.00;;;;;16.11;83.80;101244.38;5034534;28;8950;-77
2021/06/04 02:57:31;;;;;;;;;18.00;16.67;;;;;16.00;83.60;101243.25;5020999;28;8936;-78
2021/06/04 03:00:41;;;;;;;;;15.00;15.00;;;;;16.17;83.69;101245.72;5042613;28;8937;-77
2021/06/04 03:03:37;;;;;;;;;19.00;18.00;;;;;16.27;83.38;101236.84;5055740;28;9027;-77
2021/06/04 03:06:37;;;;;;;;;15.00;15.00;;;;;16.33;83.02;101237.38;5071677;28;8944;-77
2021/06/04 03:09:36;;;;;;;;;21.67;20.33;;;;;16.32;83.14;101239.38;5065808;28;8929;-77
2021/06/04 03:12:36;;;;;;;;;15.25;15.25;;;;;16.37;83.17;101236.31;5054068;28;8915;-77
2021/06/04 03:15:55;;;;;;;;;16.25;15.75;;;;;16.17;83.04;101234.56;5053997;28;8840;-77
2021/06/04 03:18:56;;;;;;;;;14.50;14.50;;;;;16.17;83.94;101237.34;5052841;28;8823;-76
2021/06/04 03:21:52;;;;;;;;;17.50;15.75;;;;;16.37;83.06;101235.53;5053617;28;8843;-76
2021/06/04 03:24:48;;;;;;;;;20.33;20.00;;;;;16.51;82.71;101243.47;5053959;28;8835;-77
2021/06/04 03:27:44;;;;;;;;;18.00;17.00;;;;;16.38;82.48;101249.13;5053860;28;9003;-77
2021/06/04 03:30:42;;;;;;;;;15.25;15.25;;;;;16.47;81.99;101245.34;5055759;28;9164;-77
2021/06/04 03:33:39;;;;;;;;;16.67;16.00;;;;;16.55;81.98;101249.94;5073843;28;8818;-77
2021/06/04 03:36:45;;;;;;;;;17.25;16.75;;;;;16.62;82.25;101244.56;5060561;28;8913;-77
2021/06/04 03:39:44;;;;;;;;;23.67;21.33;;;;;16.65;82.13;101241.88;5070439;28;8836;-77
2021/06/04 03:42:42;;;;;;;;;14.50;14.50;;;;;16.64;81.93;101245.84;5052441;28;8976;-76
2021/06/04 03:45:40;;;;;;;;;17.00;14.00;;;;;16.67;81.59;101255.47;5070252;28;8852;-76
2021/06/04 03:48:13;;;;;;;;;17.50;17.00;;;;;16.71;81.22;101252.78;5074359;28;8838;-76
2021/06/04 03:51:13;;;;;;;;;15.00;15.00;;;;;16.62;81.32;101247.34;5073430;28;8872;-76
2021/06/04 03:54:13;;;;;;;;;17.50;16.00;;;;;16.70;81.25;101253.97;5052967;28;8946;-77
2021/06/04 03:57:11;;;;;;;;;15.50;15.50;;;;;16.87;80.98;101250.84;5039863;28;8840;-77
2021/06/04 04:00:16;;;;;;;;;14.75;14.75;;;;;16.64;81.53;101251.44;5053172;28;8828;-76
2021/06/04 04:03:14;;;;;;;;;19.50;18.00;;;;;16.58;81.87;101252.03;5040396;28;8856;-77
2021/06/04 04:06:10;;;;;;;;;13.00;13.00;;;;;16.52;81.64;101250.69;5052633;28;8936;-77
2021/06/04 04:09:08;;;;;;;;;17.00;16.50;;;;;16.65;81.48;101247.47;5052785;28;8860;-77
2021/06/04 04:12:05;;;;;;;;;12.50;12.50;;;;;16.79;81.54;101251.81;5052880;28;8843;-76
2021/06/04 04:15:03;;;;;;;;;8.00;8.00;;;;;16.85;81.18;101248.38;5052588;28;8836;-76
2021/06/04 04:17:30;;;;;;;;;16.00;16.00;;;;;16.91;80.61;101255.34;5054197;28;8840;-77
2021/06/04 04:20:34;;;;;;;;;13.00;13.00;;;;;16.85;80.70;101255.97;5052821;28;8879;-77
2021/06/04 04:23:38;;;;;;;;;13.00;11.75;;;;;16.78;80.79;101261.38;5052773;28;8905;-77
2021/06/04 04:26:35;;;;;;;;;15.00;15.00;;;;;16.83;80.76;101256.31;5052097;28;8879;-77
2021/06/04 04:29:32;;;;;;;;;11.75;11.75;;;;;16.75;80.74;101268.50;5032565;28;8818;-77
2021/06/04 04:32:27;;;;;;;;;10.75;10.25;;;;;16.51;81.48;101257.44;5032757;28;8840;-77
2021/06/04 04:35:29;;;;;;;;;10.75;10.75;;;;;16.64;81.04;101261.78;5052503;28;8824;-77
2021/06/04 04:38:24;;;;;;;;;13.25;11.50;;;;;16.94;80.87;101263.03;5053862;28;8828;-77
2021/06/04 04:41:20;;;;;;;;;11.00;10.00;;;;;16.88;80.53;101264.44;5052247;28;8839;-77
2021/06/04 04:44:18;;;;;;;;;10.75;10.75;;;;;16.76;81.02;101264.53;5052062;28;8844;-77
2021/06/04 04:47:16;;;;;;;;;10.00;9.75;;;;;16.84;80.42;101263.53;5052366;28;8931;-77
2021/06/04 04:50:13;;;;;;;;;8.75;8.75;;;;;16.98;80.10;101268.69;5052172;28;8829;-78
2021/06/04 04:53:09;;;;;;;;;12.50;12.50;;;;;16.98;80.40;101259.50;5051674;28;8933;-77
2021/06/04 04:56:07;;;;;;;;;11.00;10.25;;;;;17.09;79.89;101266.94;5018889;28;8845;-77
2021/06/04 04:59:04;;;;;;;;;6.50;6.50;;;;;17.09;79.44;101261.38;5048979;28;8831;-77
2021/06/04 05:01:59;;;;;;;;;8.00;8.00;;;;;16.97;79.31;101257.88;5034113;28;8854;-78
2021/06/04 05:04:55;;;;;;;;;7.00;7.00;;;;;17.35;78.79;101265.59;5038101;28;8851;-78
2021/06/04 05:07:50;;;;;;;;;11.00;10.50;;;;;17.26;78.52;101268.59;5032185;28;8854;-77
2021/06/04 05:10:47;;;;;;;;;9.00;9.00;;;;;17.17;78.73;101271.53;5039758;28;8912;-78
2021/06/04 05:13:42;;;;;;;;;10.50;10.50;;;;;17.25;78.75;101278.13;5037855;28;8828;-77
2021/06/04 05:16:38;;;;;;;;;11.00;11.00;;;;;17.32;79.06;101278.28;5051794;28;8832;-77
2021/06/04 05:19:34;;;;;;;;;12.00;12.00;;;;;17.58;78.53;101282.50;5051620;28;8983;-78
2021/06/04 05:22:29;;;;;;;;;13.25;13.25;;;;;17.59;78.13;101290.53;5051164;28;8823;-78
2021/06/04 05:25:29;;;;;;;;;11.75;11.75;;;;;17.35;78.39;101280.38;5032407;28;9626;-77
2021/06/04 05:28:27;;;;;;;;;10.25;10.25;;;;;17.61;77.87;101295.75;5038531;28;9037;-77
2021/06/04 05:31:22;;;;;;;;;11.75;11.75;;;;;17.60;77.80;101286.56;5051408;28;8863;-77
2021/06/04 05:34:18;;;;;;;;;20.75;20.75;;;;;17.67;77.51;101297.91;5053138;28;8824;-76
2021/06/04 05:37:13;;;;;;;;;15.75;15.75;;;;;17.71;77.24;101300.81;5050394;28;8849;-78
2021/06/04 05:40:15;;;;;;;;;23.75;23.50;;;;;17.52;77.90;101302.38;5037614;28;8828;-78
2021/06/04 05:43:18;;;;;;;;;12.75;12.75;;;;;17.40;78.13;101301.66;5055669;28;9592;-74
2021/06/04 05:46:16;;;;;;;;;13.00;13.00;;;;;17.61;78.01;101304.97;5041674;28;8931;-77
2021/06/04 05:49:12;;;;;;;;;17.00;17.00;;;;;17.71;78.26;101312.84;5057087;28;8829;-78
2021/06/04 05:52:10;;;;;;;;;11.75;11.75;;;;;17.73;77.12;101318.88;5042187;28;8847;-78
2021/06/04 05:55:06;;;;;;;;;20.50;20.50;;;;;17.72;77.23;101322.03;5055348;28;8850;-77
2021/06/04 05:58:09;;;;;;;;;42.33;37.67;;;;;17.75;77.42;101319.31;5055549;28;8906;-78
2021/06/04 06:01:08;;;;;;;;;25.00;25.00;;;;;17.89;77.90;101316.03;5041900;28;9379;-78
2021/06/04 06:04:05;;;;;;;;;25.33;25.33;;;;;17.99;77.20;101321.03;5042519;28;8848;-78
2021/06/04 06:07:01;;;;;;;;;39.00;35.25;;;;;17.79;77.56;101316.63;5054951;28;8921;-75
2021/06/04 06:09:57;;;;;;;;;13.50;13.50;;;;;17.83;76.89;101319.47;5056151;28;8902;-76
2021/06/04 06:12:54;;;;;;;;;20.25;20.25;;;;;17.59;77.11;101312.91;5044046;28;8819;-76
2021/06/04 06:15:50;;;;;;;;;17.50;17.50;;;;;17.67;77.45;101313.88;5053532;28;8817;-76
2021/06/04 06:18:46;;;;;;;;;18.50;18.50;;;;;17.85;76.35;101309.53;5055131;28;8826;-77
2021/06/04 06:21:46;;;;;;;;;18.25;18.25;;;;;18.09;76.18;101314.06;5050360;28;8852;-77
2021/06/04 06:24:41;;;;;;;;;13.50;12.25;;;;;18.03;75.67;101316.34;5075035;28;8829;-77
2021/06/04 06:27:37;;;;;;;;;17.00;15.75;;;;;18.00;75.19;101321.84;5062272;28;8854;-76
2021/06/04 06:30:34;;;;;;;;;15.00;15.00;;;;;18.10;75.60;101310.09;5074891;28;8849;-76
2021/06/04 06:33:30;;;;;;;;;16.50;16.50;;;;;18.05;75.06;101322.38;5055835;28;8832;-76
2021/06/04 06:36:30;;;;;;;;;16.75;16.00;;;;;18.02;75.06;101323.13;5056753;28;8851;-75
2021/06/04 06:39:30;;;;;;;;;16.75;15.50;;;;;18.18;75.37;101330.66;5064518;28;8842;-77
2021/06/04 06:42:26;;;;;;;;;11.00;11.00;;;;;18.30;74.18;101324.91;5052178;28;8840;-76
2021/06/04 06:45:24;;;;;;;;;12.50;12.50;;;;;18.38;74.67;101329.47;5034243;28;9040;-77
2021/06/04 06:48:20;;;;;;;;;13.75;13.75;;;;;18.49;75.17;101326.91;5022685;28;8840;-76
2021/06/04 06:51:16;;;;;;;;;12.00;12.00;;;;;18.43;74.47;101331.19;5034204;28;8838;-76
2021/06/04 06:54:16;;;;;;;;;22.00;21.25;;;;;18.56;74.54;101327.84;5034307;28;8838;-75
2021/06/04 06:57:12;;;;;;;;;14.50;14.50;;;;;18.43;73.94;101337.59;5022628;28;8842;-75
2021/06/04 07:00:17;;;;;;;;;14.75;14.75;;;;;18.38;74.32;101332.28;5021004;28;8853;-75
2021/06/04 07:03:16;;;;;;;;;15.00;15.00;;;;;18.18;74.94;101341.84;5022432;28;8899;-75
2021/06/04 07:06:25;;;;;;;;;14.25;14.25;;;;;18.03;75.95;101340.72;5034303;28;8964;-76
2021/06/04 07:09:23;;;;;;;;;17.00;16.75;;;;;17.83;76.29;101336.25;5033980;28;9003;-75
2021/06/04 07:12:19;;;;;;;;;12.00;12.00;;;;;17.48;77.79;101335.03;5035598;28;8837;-77
2021/06/04 07:15:17;;;;;;;;;13.50;13.50;;;;;17.48;78.51;101345.38;5035399;28;8986;-76
2021/06/04 07:18:14;;;;;;;;;11.75;11.75;;;;;17.64;78.27;101342.59;5035577;28;8854;-78
2021/06/04 07:21:12;;;;;;;;;15.00;15.00;;;;;17.81;77.88;101336.63;5022251;28;8842;-78
2021/06/04 07:24:13;;;;;;;;;14.75;14.75;;;;;17.96;77.11;101348.97;5035749;28;8842;-78
2021/06/04 07:27:09;;;;;;;;;13.00;13.00;;;;;18.02;77.02;101342.72;5022094;28;8833;-79
2021/06/04 07:30:10;;;;;;;;;12.50;12.50;;;;;18.14;76.19;101340.97;5020640;28;8846;-78
2021/06/04 07:33:10;;;;;;;;;17.00;16.00;;;;;18.49;75.85;101338.91;5020634;28;8830;-78
2021/06/04 07:36:10;;;;;;;;;13.00;13.00;;;;;18.62;74.80;101343.16;5020447;28;8834;-75
2021/06/04 07:39:16;;;;;;;;;16.67;15.00;;;;;18.70;74.19;101343.34;5033656;28;8897;-78
2021/06/04 07:42:14;;;;;;;;;12.00;12.00;;;;;18.68;73.38;101343.72;5035322;28;8844;-76
2021/06/04 07:45:10;;;;;;;;;13.25;12.75;;;;;18.74;73.71;101341.44;5033418;28;8810;-78
2021/06/04 07:48:13;;;;;;;;;9.75;9.75;;;;;18.88;73.49;101345.31;5033724;28;8837;-77
2021/06/04 07:51:14;;;;;;;;;7.00;7.00;;;;;18.88;73.18;101350.91;5033583;28;8826;-77
2021/06/04 07:54:11;;;;;;;;;9.00;9.00;;;;;19.07;73.32;101350.06;5033439;28;8846;-78
2021/06/04 07:57:07;;;;;;;;;7.50;7.50;;;;;19.10;72.70;101346.53;5033367;28;8857;-77
2021/06/04 08:00:26;;;;;;;;;6.50;6.50;;;;;19.40;72.36;101343.03;5033417;28;8850;-78
2021/06/04 08:03:26;;;;;;;;;7.00;7.00;;;;;19.44;71.94;101349.50;5033250;28;8854;-77
2021/06/04 08:06:22;;;;;;;;;7.25;7.25;;;;;19.50;71.88;101345.19;5032674;28;8814;-78
2021/06/04 08:09:18;;;;;;;;;9.75;9.00;;;;;19.27;72.29;101350.00;5033151;28;8850;-78
2021/06/04 08:12:16;;;;;;;;;8.50;8.50;;;;;19.14;71.26;101355.78;5056834;28;8827;-78
2021/06/04 08:15:27;;;;;;;;;10.00;10.00;;;;;19.45;71.73;101348.31;5053478;28;9586;-78
2021/06/04 08:18:26;;;;;;;;;6.00;6.00;;;;;19.01;71.91;101359.94;5052660;28;8959;-77
2021/06/04 08:21:27;;;;;;;;;8.00;8.00;;;;;19.20;72.04;101350.69;5056450;28;8929;-78
2021/06/04 08:24:29;;;;;;;;;6.75;6.75;;;;;19.08;72.79;101354.47;5072038;28;8849;-78
2021/06/04 08:27:26;;;;;;;;;8.00;8.00;;;;;19.11;72.40;101359.34;5034594;28;9576;-78
2021/06/04 08:30:25;;;;;;;;;8.50;8.50;;;;;19.28;72.02;101357.22;5067453;28;8833;-77
2021/06/04 08:33:42;;;;;;;;;11.00;11.00;;;;;19.01;72.59;101361.94;5068367;28;8828;-78
2021/06/04 08:36:40;;;;;;;;;8.50;8.50;;;;;18.89;73.71;101358.13;5054003;28;8914;-78
2021/06/04 08:39:39;;;;;;;;;4.50;4.50;;;;;19.15;73.02;101354.59;5065875;28;8864;-78
2021/06/04 08:43:10;;;;;;;;;9.25;5.25;;;;;19.37;72.13;101354.97;5058891;28;8836;-78
2021/06/04 08:46:12;;;;;;;;;9.33;9.33;;;;;19.43;72.29;101364.69;5037765;28;8844;-79
2021/06/04 08:48:44;;;;;;;;;8.75;8.75;;;;;19.31;72.44;101359.28;5051748;28;8827;-79
2021/06/04 08:51:19;;;;;;;;;9.50;9.50;;;;;19.38;72.29;101367.81;5051495;28;8852;-77
2021/06/04 08:54:31;;;;;;;;;6.25;6.25;;;;;18.96;72.78;101371.47;5038145;28;8883;-77
2021/06/04 08:57:24;;;;;;;;;7.00;7.00;;;;;18.68;73.21;101363.31;5054984;28;8917;-78
2021/06/04 08:59:55;;;;;;;;;7.75;7.75;;;;;18.87;73.89;101377.31;5053082;28;8848;-78
2021/06/04 09:02:53;;;;;;;;;9.00;9.00;;;;;19.15;73.54;101365.00;5066731;28;8861;-77
2021/06/04 09:05:44;;;;;;;;;6.75;6.75;;;;;18.94;73.19;101375.81;5043105;28;8878;-76
2021/06/04 09:08:43;;;;;;;;;7.50;7.50;;;;;18.89;73.32;101365.75;5051354;28;8986;-77
2021/06/04 09:11:39;;;;;;;;;8.25;6.75;;;;;18.83;73.19;101367.22;5037725;28;8817;-76
2021/06/04 09:14:35;;;;;;;;;6.25;6.25;;;;;18.96;72.44;101379.88;5051221;28;8962;-77
2021/06/04 09:17:36;;;;;;;;;8.00;8.00;;;;;19.20;72.89;101377.91;5031932;28;8837;-78
2021/06/04 09:20:38;;;;;;;;;6.25;6.25;;;;;19.07;72.19;101378.09;5051625;28;8867;-77
2021/06/04 09:23:09;;;;;;;;;7.75;7.75;;;;;19.26;72.64;101376.44;5035100;28;8869;-76
2021/06/04 09:25:39;;;;;;;;;9.25;9.25;;;;;19.21;71.70;101374.75;5052656;28;8844;-75
2021/06/04 09:28:14;;;;;;;;;8.00;8.00;;;;;19.06;72.35;101376.47;5052905;28;8840;-77
2021/06/04 09:30:58;;;;;;;;;9.00;9.00;;;;;18.95;73.28;101383.88;5034820;28;8859;-77
2021/06/04 09:33:57;;;;;;;;;7.50;7.50;;;;;19.14;71.70;101385.81;5051692;28;8893;-77
2021/06/04 09:36:53;;;;;;;;;8.00;8.00;;;;;18.94;72.59;101387.88;5051505;28;8832;-77
2021/06/04 09:39:50;;;;;;;;;9.75;9.75;;;;;19.34;72.44;101383.78;5039561;28;8934;-78
2021/06/04 09:42:33;;;;;;;;;6.75;6.75;;;;;19.06;71.21;101384.88;5037088;28;9575;-78
2021/06/04 09:45:14;;;;;;;;;7.00;7.00;;;;;19.50;71.69;101375.25;5052289;28;8851;-79
2021/06/04 09:48:07;;;;;;;;;2.75;2.75;;;;;19.80;70.76;101378.16;5052685;28;8845;-76
2021/06/04 09:51:27;;;;;;;;;6.75;6.75;;;;;19.90;70.30;101364.28;5026867;28;8911;-75
2021/06/04 09:54:29;;;;;;;;;5.75;5.75;;;;;20.05;69.15;101370.91;5037841;28;9567;-75
2021/06/04 09:57:25;;;;;;;;;7.50;7.00;;;;;19.82;69.33;101370.97;5049418;28;8863;-75
2021/06/04 10:00:27;;;;;;;;;5.75;5.75;;;;;19.25;70.51;101375.63;5051444;28;8836;-74
2021/06/04 10:03:17;;;;;;;;;7.00;7.00;;;;;19.79;69.87;101379.34;5052013;28;8843;-77
2021/06/04 10:06:13;;;;;;;;;7.25;7.25;;;;;20.26;69.06;101376.03;5051496;28;8844;-77
2021/06/04 10:09:20;;;;;;;;;4.25;4.25;;;;;20.30;67.44;101381.69;5051771;28;9615;-75
2021/06/04 10:12:36;;;;;;;;;9.25;8.75;;;;;20.78;67.28;101382.75;5037512;28;8840;-77
2021/06/04 10:15:41;;;;;;;;;6.75;6.75;;;;;20.76;66.96;101379.47;5052631;28;8874;-76
2021/06/04 10:18:39;;;;;;;;;6.00;6.00;;;;;21.00;66.12;101373.31;5051300;28;8921;-78
2021/06/04 10:21:35;;;;;;;;;6.50;6.50;;;;;21.12;65.91;101372.25;5051130;28;8864;-74
2021/06/04 10:24:04;;;;;;;;;9.25;9.25;;;;;21.46;64.95;101372.19;5054541;28;8848;-75
2021/06/04 10:27:03;;;;;;;;;11.75;11.75;;;;;21.52;63.46;101371.44;5057520;28;8849;-76
2021/06/04 10:30:34;;;;;;;;;9.00;9.00;;;;;21.61;62.63;101371.91;5053158;28;8820;-76
2021/06/04 10:33:42;;;;;;;;;4.60;4.60;;;;;21.90;61.88;101375.75;5054791;28;8894;-75
2021/06/04 10:36:45;;;;;;;;;5.60;5.60;;;;;21.58;62.01;101389.59;5053765;28;8963;-75
2021/06/04 10:39:48;;;;;;;;;5.20;5.20;;;;;21.35;63.34;101378.53;5032307;28;8836;-75
2021/06/04 10:42:56;;;;;;;;;3.60;3.60;;;;;21.14;63.59;101381.09;5054506;28;8899;-76
2021/06/04 10:45:51;;;;;;;;;4.75;4.75;;;;;20.65;64.80;101378.56;5040944;28;8825;-74
2021/06/04 10:49:24;;;;;;;;;4.00;4.00;;;;;21.01;63.93;101377.78;5054488;28;8891;-76
2021/06/04 10:52:54;;;;;;;;;7.75;6.75;;;;;21.47;64.10;101388.69;5054359;28;8865;-76
2021/06/04 10:56:04;;;;;;;;;7.60;7.60;;;;;21.25;63.69;101378.41;5034228;28;8892;-74
2021/06/04 10:59:04;;;;;;;;;5.00;5.00;;;;;21.33;63.31;101380.94;5035378;28;8849;-75
2021/06/04 11:02:12;;;;;;;;;5.00;5.00;;;;;21.50;63.02;101387.09;5046228;28;9759;-75
2021/06/04 11:05:43;;;;;;;;;3.80;3.80;;;;;21.58;61.29;101391.59;5037761;28;8821;-75
2021/06/04 11:08:54;;;;;;;;;5.00;5.00;;;;;22.15;61.82;101389.19;5039626;28;8861;-75
2021/06/04 11:12:14;;;;;;;;;5.80;5.40;;;;;22.32;61.10;101384.91;5052500;28;8824;-75
2021/06/04 11:15:18;;;;;;;;;3.20;3.20;;;;;21.42;60.34;101389.03;5053472;28;9569;-77
2021/06/04 11:18:31;;;;;;;;;3.20;3.20;;;;;21.60;61.02;101398.44;5054974;28;8844;-75
2021/06/04 11:21:52;;;;;;;;;5.40;5.40;;;;;21.77;60.97;101387.69;5054125;28;8941;-74
2021/06/04 11:24:54;;;;;;;;;7.00;7.00;;;;;21.90;60.90;101392.63;5053191;28;8821;-72
2021/06/04 11:27:57;;;;;;;;;10.20;8.60;;;;;22.27;60.82;101397.34;5046155;28;8870;-74
2021/06/04 11:30:56;;;;;;;;;4.00;4.00;;;;;22.61;58.61;101389.44;5053803;28;8836;-74
2021/06/04 11:33:55;;;;;;;;;2.60;2.60;;;;;22.36;59.25;101400.59;5040532;28;8844;-75
2021/06/04 11:36:51;;;;;;;;;3.00;3.00;;;;;22.03;60.29;101395.16;5053931;28;8858;-74
2021/06/04 11:39:52;;;;;;;;;2.60;2.60;;;;;21.59;61.19;101401.66;5052472;28;8934;-74
2021/06/04 11:43:01;;;;;;;;;3.00;3.00;;;;;21.46;61.76;101405.94;5054395;28;8879;-74
2021/06/04 11:46:28;;;;;;;;;2.00;2.00;;;;;21.28;61.53;101400.97;5052808;28;8917;-74
2021/06/04 11:49:24;;;;;;;;;3.75;3.75;;;;;21.45;62.70;101401.53;5052795;28;8824;-74
2021/06/04 11:52:35;;;;;;;;;3.00;3.00;;;;;21.38;61.22;101394.63;5053925;28;8828;-75
2021/06/04 11:55:35;;;;;;;;;2.75;2.75;;;;;21.17;61.02;101407.66;5053045;28;8840;-75
2021/06/04 11:58:28;;;;;;;;;2.00;2.00;;;;;21.27;60.53;101393.72;5054610;28;8824;-74
2021/06/04 12:01:21;;;;;;;;;1.00;1.00;;;;;20.85;60.14;101405.28;5054317;28;8836;-74
2021/06/04 12:04:20;;;;;;;;;2.00;2.00;;;;;21.27;60.94;101401.31;5052259;28;8836;-74
2021/06/04 12:07:36;;;;;;;;;2.25;2.25;;;;;21.09;60.70;101406.78;5041123;28;8865;-74
2021/06/04 12:10:50;;;;;;;;;2.75;2.75;;;;;21.42;60.37;101400.28;5054675;28;8843;-75
2021/06/04 12:13:49;;;;;;;;;1.00;1.00;;;;;21.10;60.83;101399.97;5052923;28;8847;-74
2021/06/04 12:17:05;;;;;;;;;3.25;3.25;;;;;21.31;60.98;101403.00;5052870;28;8847;-73
2021/06/04 12:20:33;;;;;;;;;3.00;3.00;;;;;21.45;60.96;101402.31;5054218;28;8839;-75
2021/06/04 12:23:49;;;;;;;;;1.40;1.40;;;;;21.19;60.12;101413.72;5052680;28;8859;-74
2021/06/04 12:27:02;;;;;;;;;2.40;2.40;;;;;20.99;60.14;101408.25;5034778;28;8905;-74
2021/06/04 12:29:52;;;;;;;;;3.00;3.00;;;;;21.17;60.68;101419.72;5053809;28;8844;-74
2021/06/04 12:32:48;;;;;;;;;2.40;2.40;;;;;21.38;60.48;101419.94;5052597;28;8828;-75
2021/06/04 12:35:46;;;;;;;;;4.00;4.00;;;;;21.22;58.99;101416.53;5052459;28;9728;-74
2021/06/04 12:38:41;;;;;;;;;3.20;2.80;;;;;21.30;59.86;101412.63;5052266;28;8840;-74
2021/06/04 12:41:37;;;;;;;;;2.80;2.80;;;;;21.13;59.24;101416.03;5052122;28;8836;-73
2021/06/04 12:44:33;;;;;;;;;3.00;3.00;;;;;21.40;59.82;101416.78;5052274;28;8861;-75
2021/06/04 12:47:45;;;;;;;;;4.20;4.20;;;;;21.60;60.15;101411.69;5052218;28;8942;-75
2021/06/04 12:50:57;;;;;;;;;2.60;2.60;;;;;21.54;59.40;101414.06;5051997;28;8876;-77
2021/06/04 12:54:09;;;;;;;;;2.00;2.00;;;;;21.51;59.10;101417.66;5052458;28;8845;-74
2021/06/04 12:57:04;;;;;;;;;2.80;2.80;;;;;21.68;59.14;101421.81;5052059;28;8851;-76
2021/06/04 13:00:31;;;;;;;;;4.40;4.40;;;;;21.79;59.06;101410.66;5052129;28;8847;-77
2021/06/04 13:03:30;;;;;;;;;3.00;3.00;;;;;21.91;58.62;101415.97;5051914;28;8851;-74
2021/06/04 13:06:51;;;;;;;;;1.80;1.80;;;;;21.71;58.79;101409.81;5051922;28;8862;-74
2021/06/04 13:10:08;;;;;;;;;3.00;3.00;;;;;22.13;58.67;101416.97;5051700;28;9597;-78
2021/06/04 13:13:40;;;;;;;;;2.40;2.40;;;;;21.85;56.77;101420.34;5054728;28;8824;-78
2021/06/04 13:16:37;;;;;;;;;4.00;4.00;;;;;21.94;57.71;101426.47;5038362;28;8840;-78
2021/06/04 13:19:32;;;;;;;;;3.00;3.00;;;;;21.83;58.07;101417.94;5038495;28;8837;-78
2021/06/04 13:22:28;;;;;;;;;4.40;4.40;;;;;21.56;58.90;101414.50;5035393;28;8824;-77
2021/06/04 13:25:28;;;;;;;;;2.00;2.00;;;;;21.75;59.64;101415.44;5050756;28;8880;-78
2021/06/04 13:28:37;;;;;;;;;4.00;4.00;;;;;21.91;59.69;101421.59;5051649;28;8843;-78
2021/06/04 13:31:40;;;;;;;;;4.20;4.20;;;;;21.85;60.53;101421.19;5051337;28;8828;-77
2021/06/04 13:34:45;;;;;;;;;4.40;4.40;;;;;22.01;59.85;101428.53;5054071;28;8834;-77
2021/06/04 13:37:52;;;;;;;;;3.00;3.00;;;;;21.92;58.97;101426.84;5071709;28;8857;-78
2021/06/04 13:40:50;;;;;;;;;1.80;1.80;;;;;21.75;59.57;101435.97;5058064;28;8960;-78
2021/06/04 13:43:48;;;;;;;;;3.60;3.60;;;;;21.89;59.22;101441.72;5058190;28;8852;-77
2021/06/04 13:47:06;;;;;;;;;4.80;4.80;;;;;21.96;59.42;101440.16;5071565;28;9619;-77
2021/06/04 13:50:34;;;;;;;;;8.60;6.20;;;;;22.03;60.20;101443.03;5071433;28;8906;-78
2021/06/04 13:53:36;;;;;;;;;4.00;4.00;;;;;21.84;59.05;101438.44;5059577;28;8847;-78
2021/06/04 13:56:32;;;;;;;;;3.40;3.40;;;;;21.48;59.46;101448.59;5051197;28;8863;-78
2021/06/04 13:59:25;;;;;;;;;3.80;3.80;;;;;21.25;60.14;101445.94;5052386;28;8848;-77